Time;durP1;ratioP1;P1;durP2;ratioP2;P2;SDS_P1;SDS_P2;PMS_P1;PMS_P2;Temp;Humidity;BMP_temperature;BMP_pressure;BME280_temperature;BME280_humidity;BME280_pressure;Samples;Min_cycle;Max_cycle;Signal;HPM_P1;HPM_P2
2022/05/12 00:01:25;;;;;;;7.20;6.50;;;16.40;84.40;;;;;;6175436;23;20436;-79
2022/05/12 00:03:52;;;;;;;7.68;6.20;;;16.40;84.10;;;;;;6176936;23;20381;-79
2022/05/12 00:06:19;;;;;;;7.20;6.50;;;16.40;83.80;;;;;;6152131;23;20374;-79
2022/05/12 00:08:46;;;;;;;9.93;7.20;;;16.50;84.10;;;;;;6152651;23;20901;-79
2022/05/12 00:11:13;;;;;;;7.80;5.80;;;16.40;84.00;;;;;;6152297;23;20876;-77
2022/05/12 00:13:40;;;;;;;6.68;5.68;;;16.50;83.60;;;;;;6152796;23;20392;-78
2022/05/12 00:16:07;;;;;;;6.20;5.60;;;16.50;83.10;;;;;;6176581;23;20374;-79
2022/05/12 00:18:34;;;;;;;6.28;5.65;;;16.50;83.70;;;;;;6176606;23;20374;-79
2022/05/12 00:21:01;;;;;;;6.88;6.13;;;16.40;83.60;;;;;;6176208;23;20486;-80
2022/05/12 00:23:28;;;;;;;8.05;6.88;;;16.30;83.80;;;;;;6175960;23;20847;-79
2022/05/12 00:25:56;;;;;;;7.35;6.13;;;16.20;84.60;;;;;;6174943;23;20428;-79
2022/05/12 00:28:25;;;;;;;6.82;6.00;;;16.10;84.80;;;;;;6176348;23;20761;-77
2022/05/12 00:30:54;;;;;;;8.13;6.03;;;16.20;84.30;;;;;;6176563;23;20366;-79
2022/05/12 00:33:26;;;;;;;7.90;6.50;;;16.20;84.70;;;;;;6174700;23;20370;-79
2022/05/12 00:35:55;;;;;;;8.30;6.45;;;16.20;84.30;;;;;;6177006;23;20367;-79
2022/05/12 00:38:22;;;;;;;7.00;6.40;;;16.20;85.10;;;;;;6176125;23;20456;-78
2022/05/12 00:40:49;;;;;;;6.70;6.03;;;16.20;85.20;;;;;;6176068;23;20922;-80
2022/05/12 00:44:02;;;;;;;8.05;6.40;;;16.10;84.70;;;;;;6176513;23;20370;-79
2022/05/12 00:46:32;;;;;;;7.13;6.43;;;16.10;85.70;;;;;;6091192;23;20381;-79
2022/05/12 00:49:07;;;;;;;7.90;6.10;;;16.10;85.10;;;;;;6168136;23;20374;-78
2022/05/12 00:51:43;;;;;;;6.82;5.93;;;16.20;84.50;;;;;;6174761;23;20811;-78
2022/05/12 00:54:29;;;;;;;8.07;7.00;;;16.00;85.50;;;;;;6152783;23;20432;-78
2022/05/12 00:56:59;;;;;;;7.37;6.57;;;16.00;86.70;;;;;;6175945;23;20367;-78
2022/05/12 00:59:30;;;;;;;8.07;7.13;;;16.00;85.80;;;;;;6152851;23;20378;-79
2022/05/12 01:01:59;;;;;;;7.97;6.68;;;15.90;86.70;;;;;;6150620;23;20375;-79
2022/05/12 01:04:29;;;;;;;7.80;7.00;;;15.90;86.10;;;;;;6176276;23;20955;-79
2022/05/12 01:06:56;;;;;;;7.93;7.13;;;16.00;85.80;;;;;;6174465;23;20830;-78
2022/05/12 01:09:22;;;;;;;9.40;7.07;;;15.90;85.70;;;;;;6175535;23;20425;-77
2022/05/12 01:11:50;;;;;;;7.47;6.72;;;15.80;86.70;;;;;;6174516;23;20409;-77
2022/05/12 01:14:18;;;;;;;7.68;6.68;;;15.80;86.40;;;;;;6175683;23;20378;-77
2022/05/12 01:16:52;;;;;;;7.23;6.53;;;15.80;86.70;;;;;;6174195;23;20747;-78
2022/05/12 01:19:29;;;;;;;6.95;6.25;;;15.80;85.70;;;;;;6175623;23;20846;-78
2022/05/12 01:21:57;;;;;;;10.37;7.77;;;15.90;85.70;;;;;;6174679;23;20377;-79
2022/05/12 01:24:35;;;;;;;10.43;7.40;;;15.70;87.20;;;;;;6175705;23;20430;-78
2022/05/12 01:27:22;;;;;;;7.70;6.90;;;15.70;86.50;;;;;;6174471;23;20454;-77
2022/05/12 01:29:54;;;;;;;10.13;7.75;;;15.80;86.80;;;;;;6174771;23;20755;-78
2022/05/12 01:32:23;;;;;;;9.75;8.00;;;15.60;87.90;;;;;;6175687;23;20374;-80
2022/05/12 01:34:52;;;;;;;9.60;7.17;;;15.60;88.10;;;;;;6174741;23;20684;-80
2022/05/12 01:37:20;;;;;;;9.77;7.17;;;15.60;87.60;;;;;;6175310;23;20831;-79
2022/05/12 01:39:47;;;;;;;8.85;6.45;;;15.60;87.60;;;;;;6175446;23;20711;-77
2022/05/12 01:42:14;;;;;;;8.80;7.28;;;15.60;87.50;;;;;;6175451;23;20370;-77
2022/05/12 01:44:41;;;;;;;7.95;7.10;;;15.60;87.10;;;;;;6174471;23;20448;-78
2022/05/12 01:47:10;;;;;;;8.45;6.18;;;15.70;86.70;;;;;;6176161;23;20917;-78
2022/05/12 01:49:37;;;;;;;8.05;6.03;;;15.70;85.60;;;;;;6174777;23;20386;-78
2022/05/12 01:52:05;;;;;;;7.72;6.97;;;15.70;85.50;;;;;;6175254;23;20396;-78
2022/05/12 01:54:32;;;;;;;9.73;8.27;;;15.80;85.60;;;;;;6174643;23;20441;-78
2022/05/12 01:56:59;;;;;;;8.47;7.23;;;15.70;86.40;;;;;;6151857;23;20692;-77
2022/05/12 01:59:27;;;;;;;9.97;6.87;;;15.70;85.50;;;;;;6175138;23;20382;-79
2022/05/12 02:01:54;;;;;;;7.65;6.82;;;15.70;85.00;;;;;;6174733;23;20378;-77
2022/05/12 02:04:21;;;;;;;8.30;6.90;;;15.80;84.80;;;;;;6151733;23;20410;-80
2022/05/12 02:06:48;;;;;;;8.30;6.63;;;15.80;84.50;;;;;;6174497;23;20731;-79
2022/05/12 02:09:16;;;;;;;7.10;6.25;;;15.80;84.60;;;;;;6175683;23;20378;-78
2022/05/12 02:11:44;;;;;;;8.13;6.25;;;15.80;84.50;;;;;;6174575;23;20414;-77
2022/05/12 02:14:11;;;;;;;8.45;7.65;;;15.80;84.00;;;;;;6152609;23;20401;-79
2022/05/12 02:16:38;;;;;;;8.50;7.60;;;15.70;84.90;;;;;;6175442;23;20921;-78
2022/05/12 02:19:06;;;;;;;7.65;6.85;;;15.70;85.50;;;;;;6174492;23;20382;-79
2022/05/12 02:21:34;;;;;;;7.07;6.38;;;15.60;85.10;;;;;;6175687;23;20711;-79
2022/05/12 02:24:01;;;;;;;7.50;6.80;;;15.70;84.60;;;;;;6173809;23;20715;-79
2022/05/12 02:26:29;;;;;;;10.43;6.73;;;15.60;84.60;;;;;;6175134;23;20432;-78
2022/05/12 02:28:56;;;;;;;9.23;7.28;;;15.60;85.20;;;;;;6174534;23;20441;-79
2022/05/12 02:31:24;;;;;;;7.75;6.95;;;15.50;84.90;;;;;;6175836;23;20374;-79
2022/05/12 02:33:51;;;;;;;8.68;7.30;;;15.60;84.90;;;;;;6173505;23;20390;-78
2022/05/12 02:36:18;;;;;;;9.88;6.95;;;15.60;85.40;;;;;;6175374;23;20739;-80
2022/05/12 02:38:45;;;;;;;7.65;6.85;;;15.50;85.50;;;;;;6174579;23;20897;-79
2022/05/12 02:41:12;;;;;;;8.32;7.45;;;15.50;85.50;;;;;;6174207;23;20735;-78
2022/05/12 02:43:39;;;;;;;8.50;7.20;;;15.40;86.30;;;;;;6175439;23;20433;-79
2022/05/12 02:46:09;;;;;;;8.75;7.95;;;15.40;85.90;;;;;;6174668;23;20383;-80
2022/05/12 02:48:41;;;;;;;7.60;6.80;;;15.40;86.40;;;;;;6175007;23;20398;-77
2022/05/12 02:51:09;;;;;;;8.35;7.50;;;15.40;86.50;;;;;;6175382;23;20374;-78
2022/05/12 02:53:36;;;;;;;8.75;7.30;;;15.40;86.40;;;;;;6173810;23;20378;-77
2022/05/12 02:56:04;;;;;;;7.72;6.85;;;15.40;86.80;;;;;;6174302;23;20409;-79
2022/05/12 02:58:33;;;;;;;7.75;6.90;;;15.40;86.20;;;;;;6178258;23;20374;-79
2022/05/12 03:01:00;;;;;;;9.63;7.35;;;15.40;85.40;;;;;;6177556;23;20727;-78
2022/05/12 03:03:27;;;;;;;7.97;6.65;;;15.40;85.80;;;;;;6177545;23;20807;-78
2022/05/12 03:05:55;;;;;;;7.70;7.00;;;15.30;87.10;;;;;;6177511;23;20444;-78
2022/05/12 03:08:22;;;;;;;9.05;7.60;;;15.30;86.50;;;;;;6177584;23;20849;-78
2022/05/12 03:10:51;;;;;;;9.10;7.47;;;15.20;87.00;;;;;;6177224;23;20424;-79
2022/05/12 03:13:19;;;;;;;7.25;6.57;;;15.10;86.90;;;;;;6154322;23;20453;-79
2022/05/12 03:15:46;;;;;;;7.95;6.68;;;15.20;86.40;;;;;;6154168;23;20373;-79
2022/05/12 03:18:13;;;;;;;9.05;6.85;;;15.20;87.20;;;;;;6179135;23;20432;-79
2022/05/12 03:20:40;;;;;;;8.43;7.32;;;15.10;85.20;;;;;;6178087;23;20447;-78
2022/05/12 03:23:07;;;;;;;7.60;6.90;;;15.20;85.30;;;;;;6177173;23;20847;-79
2022/05/12 03:25:35;;;;;;;7.68;6.97;;;15.10;85.20;;;;;;6177957;23;20374;-78
2022/05/12 03:28:02;;;;;;;8.38;7.47;;;15.10;85.20;;;;;;6176469;23;20839;-78
2022/05/12 03:30:29;;;;;;;8.43;7.40;;;15.10;85.00;;;;;;6178854;23;20425;-79
2022/05/12 03:32:57;;;;;;;8.10;7.30;;;15.10;84.70;;;;;;6177666;23;20377;-79
2022/05/12 03:35:24;;;;;;;8.80;7.90;;;15.10;84.90;;;;;;6178790;23;20374;-78
2022/05/12 03:37:51;;;;;;;10.35;7.57;;;15.10;85.10;;;;;;6177050;23;20394;-77
2022/05/12 03:40:18;;;;;;;7.80;7.03;;;15.10;86.00;;;;;;6178420;23;20385;-79
2022/05/12 03:42:47;;;;;;;8.15;7.30;;;15.00;85.60;;;;;;6178189;23;20373;-78
2022/05/12 03:45:14;;;;;;;8.00;7.03;;;14.90;87.20;;;;;;6154727;23;20384;-79
2022/05/12 03:47:48;;;;;;;9.50;7.65;;;14.90;86.30;;;;;;6177586;23;20432;-79
2022/05/12 03:50:19;;;;;;;8.27;7.47;;;14.70;87.40;;;;;;6177281;23;20401;-77
2022/05/12 03:52:50;;;;;;;9.95;8.23;;;14.60;88.30;;;;;;6177460;23;20396;-78
2022/05/12 03:55:20;;;;;;;8.85;7.95;;;14.60;88.40;;;;;;6177125;23;20445;-79
2022/05/12 03:57:49;;;;;;;11.10;8.07;;;14.60;87.80;;;;;;6178118;23;20921;-78
2022/05/12 04:00:20;;;;;;;8.18;7.10;;;14.60;87.90;;;;;;6176796;23;20378;-77
2022/05/12 04:02:47;;;;;;;9.15;8.13;;;14.60;88.00;;;;;;6177446;23;20842;-77
2022/05/12 04:05:18;;;;;;;7.93;7.18;;;14.40;88.40;;;;;;6175947;23;20366;-78
2022/05/12 04:07:50;;;;;;;9.80;8.10;;;14.40;88.90;;;;;;6152660;23;20759;-80
2022/05/12 04:10:17;;;;;;;10.68;8.35;;;14.20;90.00;;;;;;6175451;23;20839;-79
2022/05/12 04:12:44;;;;;;;7.95;7.15;;;14.20;90.30;;;;;;6175889;23;20741;-78
2022/05/12 04:15:11;;;;;;;11.60;8.02;;;14.20;90.10;;;;;;6175791;23;20381;-79
2022/05/12 04:17:39;;;;;;;8.25;7.47;;;14.30;89.40;;;;;;6176370;23;20436;-79
2022/05/12 04:20:09;;;;;;;8.52;7.70;;;14.30;88.60;;;;;;6174594;23;20389;-79
2022/05/12 04:22:36;;;;;;;10.23;9.10;;;14.40;89.10;;;;;;6176421;23;20382;-77
2022/05/12 04:25:03;;;;;;;9.52;7.82;;;14.40;88.10;;;;;;6175139;23;20378;-80
2022/05/12 04:27:35;;;;;;;8.50;7.65;;;14.40;88.40;;;;;;6176542;23;20369;-80
2022/05/12 04:30:02;;;;;;;9.80;8.80;;;14.50;88.40;;;;;;6175336;23;20434;-79
2022/05/12 04:32:30;;;;;;;8.90;8.10;;;14.40;88.70;;;;;;6176379;23;20366;-79
2022/05/12 04:35:13;;;;;;;11.27;8.57;;;14.40;89.30;;;;;;6152239;23;20378;-77
2022/05/12 04:37:53;;;;;;;10.68;9.57;;;14.40;89.40;;;;;;6175331;23;20831;-77
2022/05/12 04:40:24;;;;;;;10.70;9.30;;;14.30;90.30;;;;;;6151627;23;20413;-78
2022/05/12 04:42:52;;;;;;;11.10;8.40;;;14.30;90.50;;;;;;6151932;23;20444;-79
2022/05/12 04:45:20;;;;;;;9.32;8.30;;;14.30;90.30;;;;;;6175175;23;20381;-77
2022/05/12 04:47:48;;;;;;;9.35;8.45;;;14.50;90.00;;;;;;6175570;23;20374;-79
2022/05/12 04:50:29;;;;;;;10.40;9.40;;;14.50;90.00;;;;;;6175198;23;20382;-78
2022/05/12 04:52:56;;;;;;;10.40;9.32;;;14.60;90.30;;;;;;6175079;23;20878;-79
2022/05/12 04:55:23;;;;;;;10.93;9.82;;;14.30;90.80;;;;;;6176566;23;20692;-79
2022/05/12 04:57:53;;;;;;;9.93;9.02;;;14.10;91.40;;;;;;6151375;23;20367;-79
2022/05/12 05:00:23;;;;;;;11.48;10.27;;;14.30;91.20;;;;;;6175354;23;20366;-79
2022/05/12 05:02:51;;;;;;;10.82;9.32;;;14.20;91.70;;;;;;6175535;23;20369;-79
2022/05/12 05:05:18;;;;;;;9.93;8.70;;;14.30;91.40;;;;;;6175097;23;20374;-79
2022/05/12 05:07:45;;;;;;;10.75;8.60;;;14.40;91.00;;;;;;6152280;23;20432;-80
2022/05/12 05:10:12;;;;;;;9.85;8.95;;;14.50;91.20;;;;;;6150973;23;20370;-79
2022/05/12 05:12:43;;;;;;;10.30;8.55;;;14.50;90.70;;;;;;6174788;23;20759;-77
2022/05/12 05:15:12;;;;;;;10.23;8.90;;;14.60;90.50;;;;;;6174865;23;20370;-78
2022/05/12 05:17:41;;;;;;;9.77;8.77;;;14.80;90.40;;;;;;6175643;23;20503;-77
2022/05/12 05:20:11;;;;;;;9.90;8.90;;;14.80;90.20;;;;;;6173624;23;20397;-77
2022/05/12 05:22:38;;;;;;;9.32;8.43;;;14.80;90.40;;;;;;6175534;23;20374;-79
2022/05/12 05:25:06;;;;;;;9.98;8.82;;;14.90;90.10;;;;;;6174774;23;20432;-78
2022/05/12 05:27:33;;;;;;;10.95;9.75;;;15.00;90.00;;;;;;6175863;23;20441;-79
2022/05/12 05:30:01;;;;;;;9.40;8.57;;;15.10;90.20;;;;;;6174462;23;20382;-79
2022/05/12 05:32:28;;;;;;;9.23;8.35;;;15.10;90.20;;;;;;6174970;23;21005;-78
2022/05/12 05:34:55;;;;;;;9.40;8.48;;;15.20;89.80;;;;;;6175364;23;20378;-77
2022/05/12 05:37:22;;;;;;;9.93;8.93;;;15.30;90.00;;;;;;6173662;23;20452;-79
2022/05/12 05:39:49;;;;;;;9.75;8.75;;;15.40;89.70;;;;;;6175417;23;20401;-79
2022/05/12 05:42:19;;;;;;;11.82;9.98;;;15.40;89.30;;;;;;6151919;23;20370;-79
2022/05/12 05:44:46;;;;;;;13.63;10.00;;;15.50;89.60;;;;;;6174975;23;20436;-80
2022/05/12 05:47:14;;;;;;;10.75;9.43;;;15.50;90.00;;;;;;6174249;23;20386;-79
2022/05/12 05:49:41;;;;;;;11.65;9.93;;;15.70;90.00;;;;;;6152495;23;20381;-77
2022/05/12 05:54:55;;;;;;;11.98;10.60;;;15.80;90.20;;;;;;6152429;23;20428;-78
2022/05/12 05:57:30;;;;;;;13.50;10.57;;;15.80;90.10;;;;;;6173853;23;20382;-79
2022/05/12 05:59:58;;;;;;;10.68;9.57;;;15.80;90.50;;;;;;6175440;23;20763;-77
2022/05/12 06:02:25;;;;;;;14.77;10.23;;;15.80;90.20;;;;;;6174681;23;20818;-79
2022/05/12 06:04:53;;;;;;;12.10;10.90;;;16.00;90.00;;;;;;6175751;23;20378;-79
2022/05/12 06:07:20;;;;;;;11.50;10.30;;;16.00;89.70;;;;;;6150779;23;20374;-76
2022/05/12 06:09:47;;;;;;;13.77;10.67;;;16.10;89.40;;;;;;6176668;23;20381;-78
2022/05/12 06:12:14;;;;;;;13.73;10.65;;;16.10;89.20;;;;;;6174520;23;20382;-80
2022/05/12 06:14:42;;;;;;;10.48;9.38;;;16.20;89.10;;;;;;6152873;23;20374;-78
2022/05/12 06:17:09;;;;;;;11.10;9.90;;;16.30;88.40;;;;;;6174427;23;20378;-79
2022/05/12 06:19:36;;;;;;;11.88;9.82;;;16.40;87.80;;;;;;6173539;23;20751;-79
2022/05/12 06:22:03;;;;;;;11.63;10.35;;;16.40;88.00;;;;;;6149124;23;20475;-80
2022/05/12 06:24:30;;;;;;;11.48;10.02;;;16.50;88.00;;;;;;6149878;23;20376;-77
2022/05/12 06:27:03;;;;;;;11.32;9.93;;;16.60;87.30;;;;;;6171341;23;20378;-78
2022/05/12 06:29:30;;;;;;;10.48;9.38;;;16.70;86.40;;;;;;6171598;23;20819;-79
2022/05/12 06:31:56;;;;;;;12.32;10.40;;;16.80;86.20;;;;;;6174029;23;20370;-77
2022/05/12 06:34:24;;;;;;;10.63;9.43;;;16.90;86.00;;;;;;6151262;23;20378;-79
2022/05/12 06:36:54;;;;;;;12.07;9.63;;;17.00;85.10;;;;;;6174905;23;20366;-79
2022/05/12 06:39:21;;;;;;;10.50;9.25;;;17.20;85.00;;;;;;6173384;23;20374;-79
2022/05/12 06:41:47;;;;;;;10.90;9.75;;;17.20;85.30;;;;;;6174681;23;20413;-76
2022/05/12 06:44:14;;;;;;;10.05;9.10;;;17.40;82.70;;;;;;6173858;23;20386;-76
2022/05/12 06:46:42;;;;;;;9.85;8.77;;;17.60;82.20;;;;;;6174885;23;20433;-79
2022/05/12 06:49:10;;;;;;;9.93;8.93;;;17.70;81.80;;;;;;6172789;23;20378;-79
2022/05/12 06:51:38;;;;;;;11.07;8.77;;;17.80;81.20;;;;;;6173610;23;20422;-79
2022/05/12 06:54:05;;;;;;;10.07;8.80;;;17.90;81.20;;;;;;6147366;23;20378;-77
2022/05/12 06:56:32;;;;;;;9.55;7.90;;;18.10;80.20;;;;;;6143920;23;20676;-80
2022/05/12 06:58:59;;;;;;;10.55;9.00;;;18.20;80.50;;;;;;6172731;23;20374;-79
2022/05/12 07:01:27;;;;;;;9.77;8.60;;;18.30;77.90;;;;;;6149932;23;20370;-80
2022/05/12 07:03:56;;;;;;;8.82;8.02;;;18.40;74.70;;;;;;6172068;23;20383;-77
2022/05/12 07:06:24;;;;;;;8.52;7.50;;;18.60;74.70;;;;;;6174256;23;20371;-78
2022/05/12 07:08:51;;;;;;;8.50;7.47;;;18.70;75.60;;;;;;6152530;23;20418;-80
2022/05/12 07:11:18;;;;;;;9.90;7.55;;;18.80;74.30;;;;;;6174053;23;20385;-80
2022/05/12 07:13:45;;;;;;;10.00;7.50;;;18.90;72.70;;;;;;6164943;23;20388;-80
2022/05/12 07:16:12;;;;;;;10.65;7.68;;;19.00;72.10;;;;;;6172875;23;20381;-80
2022/05/12 07:18:45;;;;;;;9.45;7.50;;;19.10;72.50;;;;;;6172309;23;20382;-80
2022/05/12 07:26:54;;;;;;;7.33;6.63;;;19.50;71.40;;;;;;6151086;23;20758;-79
2022/05/12 07:29:24;;;;;;;8.73;6.90;;;19.70;70.90;;;;;;6174562;23;20381;-80
2022/05/12 07:31:52;;;;;;;7.90;7.10;;;19.90;70.00;;;;;;6175747;23;20420;-80
2022/05/12 07:34:20;;;;;;;7.50;6.40;;;20.00;69.40;;;;;;6151991;23;20842;-80
2022/05/12 07:36:50;;;;;;;7.65;6.65;;;20.20;68.70;;;;;;6175314;23;20433;-79
2022/05/12 07:39:22;;;;;;;7.25;6.55;;;20.30;66.40;;;;;;6174777;23;20386;-78
2022/05/12 07:41:50;;;;;;;6.88;5.93;;;20.40;66.40;;;;;;6174198;23;20775;-80
2022/05/12 07:44:19;;;;;;;7.68;5.88;;;20.50;67.30;;;;;;6177272;23;20377;-80
2022/05/12 07:46:52;;;;;;;8.13;5.80;;;20.60;64.20;;;;;;6175735;23;20401;-79
2022/05/12 07:49:19;;;;;;;9.27;6.85;;;20.70;64.20;;;;;;6177048;23;20412;-79
2022/05/12 07:51:48;;;;;;;6.82;6.20;;;20.80;63.70;;;;;;6175907;23;20386;-80
2022/05/12 07:54:16;;;;;;;7.35;5.68;;;21.00;63.20;;;;;;6177315;23;20378;-79
2022/05/12 07:56:43;;;;;;;7.18;5.85;;;21.10;63.20;;;;;;6150138;23;20382;-78
2022/05/12 07:59:10;;;;;;;5.97;5.38;;;21.10;60.90;;;;;;6153914;23;20382;-78
2022/05/12 08:01:38;;;;;;;7.07;5.25;;;21.20;62.50;;;;;;6176326;23;20410;-79
2022/05/12 08:04:05;;;;;;;6.68;5.93;;;21.50;61.20;;;;;;6177449;23;20437;-80
2022/05/12 08:06:33;;;;;;;8.23;6.07;;;21.50;61.40;;;;;;6176769;23;20828;-81
2022/05/12 08:09:01;;;;;;;6.32;5.70;;;21.50;62.20;;;;;;6176386;23;20738;-78
2022/05/12 08:11:28;;;;;;;7.15;5.72;;;21.70;62.20;;;;;;6176809;23;20863;-77
2022/05/12 08:13:56;;;;;;;8.05;5.72;;;22.00;63.10;;;;;;6176131;23;20378;-79
2022/05/12 08:16:23;;;;;;;6.03;5.43;;;22.10;61.10;;;;;;6154182;23;20406;-78
2022/05/12 08:18:50;;;;;;;8.60;5.63;;;22.30;60.50;;;;;;6175683;23;20368;-80
2022/05/12 08:21:19;;;;;;;6.20;5.60;;;22.50;61.60;;;;;;6177599;23;20385;-80
2022/05/12 08:23:47;;;;;;;6.68;5.75;;;22.70;60.60;;;;;;6151478;23;20941;-80
2022/05/12 08:26:16;;;;;;;11.48;6.43;;;22.80;59.30;;;;;;6177696;23;20375;-78
2022/05/12 08:28:44;;;;;;;7.35;5.68;;;22.70;60.00;;;;;;6175732;23;20378;-80
2022/05/12 08:31:11;;;;;;;7.38;5.60;;;22.80;60.10;;;;;;6153273;23;20418;-80
2022/05/12 08:33:38;;;;;;;8.05;5.20;;;23.00;58.30;;;;;;6177432;23;20907;-80
2022/05/12 08:36:05;;;;;;;7.35;4.43;;;23.10;59.80;;;;;;6176978;23;20366;-78
2022/05/12 08:38:34;;;;;;;6.70;4.70;;;23.40;57.10;;;;;;6175294;23;20382;-78
2022/05/12 08:41:03;;;;;;;7.55;4.47;;;23.60;58.10;;;;;;6177201;23;20375;-82
2022/05/12 08:43:54;;;;;;;6.53;4.05;;;23.80;55.30;;;;;;6154300;23;20929;-82
2022/05/12 08:46:25;;;;;;;5.28;4.30;;;23.90;53.30;;;;;;6175558;23;20370;-80
2022/05/12 08:49:04;;;;;;;8.00;4.88;;;24.10;55.40;;;;;;6176294;23;20409;-80
2022/05/12 08:51:35;;;;;;;4.97;4.00;;;24.20;54.50;;;;;;6152811;23;20374;-80
2022/05/12 08:54:10;;;;;;;6.90;4.28;;;24.40;53.40;;;;;;6175934;23;20440;-80
2022/05/12 08:56:37;;;;;;;5.00;4.50;;;24.20;54.80;;;;;;6152194;23;20409;-80
2022/05/12 08:59:04;;;;;;;5.07;4.00;;;24.30;51.90;;;;;;6176287;23;20378;-81
2022/05/12 09:01:39;;;;;;;6.15;3.80;;;24.30;51.80;;;;;;6176160;23;20438;-81
2022/05/12 09:04:30;;;;;;;4.43;4.03;;;24.40;49.40;;;;;;6176039;23;20527;-78
2022/05/12 09:07:10;;;;;;;4.72;3.80;;;24.50;51.50;;;;;;6173369;23;20902;-78
2022/05/12 09:10:05;;;;;;;8.82;4.75;;;24.50;51.40;;;;;;6176079;23;20925;-80
2022/05/12 09:12:49;;;;;;;6.07;4.68;;;24.30;53.20;;;;;;6176837;23;20377;-77
2022/05/12 09:15:31;;;;;;;5.10;4.28;;;24.30;54.80;;;;;;6175412;23;20976;-78
2022/05/12 09:18:01;;;;;;;7.53;5.00;;;24.60;53.90;;;;;;6176649;23;20378;-81
2022/05/12 09:20:33;;;;;;;5.97;4.20;;;24.90;51.90;;;;;;6176499;23;20433;-81
2022/05/12 09:23:01;;;;;;;6.57;4.57;;;24.80;53.20;;;;;;6175864;23;20366;-80
2022/05/12 09:25:38;;;;;;;7.55;4.57;;;25.00;51.60;;;;;;6176842;23;20374;-80
2022/05/12 09:28:27;;;;;;;8.55;4.60;;;24.90;52.90;;;;;;6150990;23;20375;-80
2022/05/12 09:31:01;;;;;;;5.30;4.00;;;25.10;52.70;;;;;;6151603;23;20378;-80
2022/05/12 09:33:34;;;;;;;8.18;4.85;;;25.50;53.10;;;;;;6176453;23;20454;-80
2022/05/12 09:36:30;;;;;;;8.95;4.20;;;25.70;51.70;;;;;;6151551;23;20707;-80
2022/05/12 09:38:58;;;;;;;6.03;4.22;;;25.80;50.50;;;;;;6128820;23;20382;-82
2022/05/12 09:41:41;;;;;;;6.00;4.55;;;25.40;50.60;;;;;;6152831;23;20385;-81
2022/05/12 09:44:24;;;;;;;5.97;4.20;;;25.20;50.90;;;;;;6174962;23;20906;-79
2022/05/12 09:46:56;;;;;;;7.17;4.73;;;24.90;50.90;;;;;;6175876;23;20425;-80
2022/05/12 09:49:28;;;;;;;8.30;4.38;;;25.10;52.20;;;;;;6175692;23;20370;-81
2022/05/12 09:51:57;;;;;;;5.47;4.63;;;25.40;53.00;;;;;;6175893;23;20433;-78
2022/05/12 09:54:26;;;;;;;5.93;4.57;;;25.50;49.90;;;;;;6175629;23;20429;-82
2022/05/12 09:57:00;;;;;;;7.53;4.93;;;25.40;52.80;;;;;;6152270;23;20401;-79
2022/05/12 09:59:30;;;;;;;5.82;4.97;;;25.70;50.30;;;;;;6175534;23;20409;-80
2022/05/12 10:02:11;;;;;;;6.70;4.85;;;25.50;49.80;;;;;;6175749;23;20722;-80
2022/05/12 10:08:15;;;;;;;5.95;4.70;;;25.90;49.00;;;;;;6119219;23;20368;-80
2022/05/12 10:10:42;;;;;;;8.65;5.13;;;25.70;50.00;;;;;;6119758;23;20904;-80
2022/05/12 10:13:31;;;;;;;6.53;5.60;;;25.90;49.80;;;;;;6131137;23;20377;-80
2022/05/12 10:15:59;;;;;;;7.75;5.05;;;25.80;49.00;;;;;;6175733;23;20424;-82
2022/05/12 10:18:42;;;;;;;7.13;4.55;;;25.80;49.60;;;;;;6176288;23;20901;-82
2022/05/12 10:21:12;;;;;;;4.53;4.13;;;26.20;52.00;;;;;;6174316;23;20378;-80
2022/05/12 10:24:18;;;;;;;6.20;4.63;;;26.60;52.10;;;;;;6176095;23;20839;-79
2022/05/12 10:27:04;;;;;;;9.70;5.17;;;26.90;48.90;;;;;;6118495;23;20397;-81
2022/05/12 10:29:56;;;;;;;6.00;5.00;;;26.90;47.70;;;;;;6175399;23;20386;-80
2022/05/12 10:32:51;;;;;;;6.35;4.63;;;26.70;47.80;;;;;;6174869;23;20382;-81
2022/05/12 10:35:47;;;;;;;7.00;4.43;;;26.40;49.60;;;;;;6175956;23;20390;-78
2022/05/12 10:38:24;;;;;;;6.47;4.95;;;26.50;49.20;;;;;;6175619;23;20432;-81
2022/05/12 10:41:13;;;;;;;5.30;4.80;;;26.30;48.10;;;;;;6175449;23;20374;-78
2022/05/12 10:43:51;;;;;;;5.47;4.22;;;26.30;49.40;;;;;;6176583;23;20366;-78
2022/05/12 10:46:29;;;;;;;7.28;4.93;;;26.60;49.70;;;;;;6175659;23;20366;-78
2022/05/12 10:49:18;;;;;;;5.03;4.47;;;26.70;48.30;;;;;;6149980;23;20432;-79
2022/05/12 10:52:27;;;;;;;5.55;5.05;;;26.50;49.20;;;;;;6176144;23;20374;-79
2022/05/12 10:55:20;;;;;;;8.10;5.20;;;26.50;49.90;;;;;;6119971;23;20672;-81
2022/05/12 10:58:23;;;;;;;6.40;5.05;;;26.60;49.60;;;;;;6174344;23;20370;-79
2022/05/12 11:01:13;;;;;;;6.07;5.43;;;26.80;49.60;;;;;;6174583;23;20671;-81
2022/05/12 11:04:04;;;;;;;6.43;5.07;;;26.40;50.00;;;;;;6175023;23;20374;-78
2022/05/12 11:06:37;;;;;;;5.30;4.80;;;26.60;49.70;;;;;;6161892;23;20862;-83
2022/05/12 11:09:11;;;;;;;6.30;5.00;;;26.50;49.60;;;;;;6175176;23;20370;-79
2022/05/12 11:11:41;;;;;;;5.80;4.90;;;26.50;51.60;;;;;;6151254;23;20386;-81
2022/05/12 11:14:30;;;;;;;6.65;5.20;;;26.50;50.80;;;;;;6175841;23;20382;-81
2022/05/12 11:17:08;;;;;;;6.13;5.07;;;26.40;50.90;;;;;;6175957;23;20371;-79
2022/05/12 11:19:38;;;;;;;6.97;4.90;;;27.00;50.80;;;;;;6176311;23;20386;-79
2022/05/12 11:22:36;;;;;;;5.43;4.93;;;27.40;48.70;;;;;;6177403;23;20374;-79
2022/05/12 11:25:29;;;;;;;6.53;4.68;;;27.20;50.00;;;;;;6177649;23;20429;-81
2022/05/12 11:29:41;;;;;;;7.35;4.93;;;27.60;48.40;;;;;;6171823;23;20486;-81
2022/05/12 11:30:59;;;;;;;10.77;4.67;;;27.80;47.40;;;;;;6154055;23;20699;-79
2022/05/12 11:33:33;;;;;;;6.47;5.15;;;27.20;48.70;;;;;;6177564;23;20382;-81
2022/05/12 11:36:01;;;;;;;5.18;4.47;;;27.10;50.90;;;;;;6177153;23;20370;-81
2022/05/12 11:38:40;;;;;;;4.80;4.30;;;27.50;49.50;;;;;;6177398;23;20378;-82
2022/05/12 11:41:20;;;;;;;4.45;4.03;;;27.90;48.30;;;;;;6176044;23;20378;-83
2022/05/12 11:47:18;;;;;;;7.37;4.40;;;27.70;47.10;;;;;;6152973;23;20462;-81
2022/05/12 11:49:51;;;;;;;5.57;4.40;;;27.90;48.10;;;;;;6152217;23;20719;-81
2022/05/12 11:52:33;;;;;;;5.35;4.50;;;28.00;45.10;;;;;;6175639;23;20700;-82
2022/05/12 11:55:07;;;;;;;5.88;4.40;;;27.40;47.90;;;;;;6175663;23;20839;-79
2022/05/12 11:57:40;;;;;;;5.20;4.53;;;27.60;50.10;;;;;;6151688;23;20374;-82
2022/05/12 12:00:32;;;;;;;6.03;4.80;;;27.90;47.50;;;;;;6177174;23;20754;-79
2022/05/12 12:03:19;;;;;;;5.80;4.43;;;28.10;47.60;;;;;;6175962;23;20974;-79
2022/05/12 12:05:48;;;;;;;5.88;4.07;;;28.30;46.70;;;;;;6175564;23;20381;-79
2022/05/12 12:08:40;;;;;;;7.15;4.70;;;28.00;47.00;;;;;;6175497;23;20377;-83
2022/05/12 12:11:13;;;;;;;5.38;4.47;;;28.00;46.00;;;;;;6166108;23;20858;-82
2022/05/12 12:13:51;;;;;;;6.82;5.13;;;28.00;46.50;;;;;;6176399;23;20378;-80
2022/05/12 12:16:40;;;;;;;6.20;4.57;;;28.10;47.30;;;;;;6177029;23;20437;-78
2022/05/12 12:19:07;;;;;;;6.90;4.50;;;27.70;46.90;;;;;;6161847;23;20428;-82
2022/05/12 12:21:47;;;;;;;10.88;5.22;;;27.80;48.50;;;;;;6176232;23;20933;-81
2022/05/12 12:24:20;;;;;;;15.13;6.70;;;28.40;46.40;;;;;;6151757;23;20380;-79
2022/05/12 12:26:58;;;;;;;5.40;4.43;;;28.60;47.00;;;;;;6176864;23;20707;-83
2022/05/12 12:29:47;;;;;;;6.72;4.40;;;29.00;45.40;;;;;;6176816;23;20786;-83
2022/05/12 12:32:32;;;;;;;7.10;4.45;;;28.90;46.80;;;;;;6176457;23;20425;-82
2022/05/12 12:35:13;;;;;;;6.07;4.23;;;29.20;45.50;;;;;;6175793;23;20854;-82
2022/05/12 12:37:50;;;;;;;7.78;4.40;;;29.50;45.70;;;;;;6176153;23;20743;-82
2022/05/12 12:40:32;;;;;;;6.60;4.60;;;29.10;44.90;;;;;;6152267;23;20377;-82
2022/05/12 12:43:14;;;;;;;4.28;3.78;;;29.20;45.20;;;;;;6176357;23;20711;-82
2022/05/12 12:45:50;;;;;;;7.82;3.95;;;29.60;46.00;;;;;;6175427;23;20710;-82
2022/05/12 12:48:30;;;;;;;4.72;3.90;;;29.60;44.40;;;;;;6176461;23;20841;-82
2022/05/12 12:50:57;;;;;;;6.85;4.32;;;29.20;44.30;;;;;;6152709;23;20382;-82
2022/05/12 12:56:30;;;;;;;4.38;3.95;;;29.20;45.10;;;;;;6153046;23;20374;-83
2022/05/12 12:56:30;;;;;;;5.40;4.57;;;29.60;45.10;;;;;;6153983;23;20374;-82
2022/05/12 12:59:16;;;;;;;6.63;4.43;;;29.50;45.20;;;;;;6152218;23;20370;-83
2022/05/12 13:01:45;;;;;;;5.20;4.00;;;29.90;43.50;;;;;;6176796;23;20464;-82
2022/05/12 13:04:13;;;;;;;5.30;4.60;;;29.50;43.90;;;;;;6177539;23;20733;-82
2022/05/12 13:06:47;;;;;;;7.43;4.70;;;29.70;43.80;;;;;;6175447;23;20374;-81
2022/05/12 13:09:14;;;;;;;17.63;4.50;;;29.20;43.80;;;;;;6176373;23;20703;-81
2022/05/12 13:11:42;;;;;;;5.18;4.40;;;29.30;43.90;;;;;;6178317;23;20374;-82
2022/05/12 13:14:11;;;;;;;6.15;4.20;;;28.90;43.40;;;;;;6176409;23;20846;-82
2022/05/12 13:16:42;;;;;;;5.38;3.95;;;28.50;45.20;;;;;;6176806;23;20382;-82
2022/05/12 13:19:09;;;;;;;5.53;4.30;;;28.80;46.10;;;;;;6175976;23;20751;-82
2022/05/12 13:21:47;;;;;;;5.88;4.20;;;29.10;44.50;;;;;;6175056;23;20432;-82
2022/05/12 13:24:32;;;;;;;4.63;3.92;;;29.20;43.30;;;;;;6180972;23;20370;-82
2022/05/12 13:27:04;;;;;;;8.75;4.32;;;29.70;43.20;;;;;;6152775;23;20363;-80